sensor_id;sensor_type;location;lat;lon;timestamp;pressure;altitude;pressure_sealevel;temperature;humidity
57038;BME280;59942;49.304;8.256;2022-12-17T00:02:22;100787.78;;;-8.63;84.85
57038;BME280;59942;49.304;8.256;2022-12-17T00:05:07;100812.56;;;-8.51;82.91
57038;BME280;59942;49.304;8.256;2022-12-17T00:07:59;100829.47;;;-8.27;84.48
57038;BME280;59942;49.304;8.256;2022-12-17T00:10:44;100753.66;;;-8.98;85.39
57038;BME280;59942;49.304;8.256;2022-12-17T00:13:30;100923.69;;;-7.99;84.36
57038;BME280;59942;49.304;8.256;2022-12-17T00:16:17;100921.97;;;-8.00;82.99
57038;BME280;59942;49.304;8.256;2022-12-17T00:19:02;100701.41;;;-9.45;80.96
57038;BME280;59942;49.304;8.256;2022-12-17T00:21:48;100751.00;;;-9.21;79.89
57038;BME280;59942;49.304;8.256;2022-12-17T00:24:35;100716.41;;;-9.46;81.50
57038;BME280;59942;49.304;8.256;2022-12-17T00:27:21;100858.19;;;-8.63;82.07
57038;BME280;59942;49.304;8.256;2022-12-17T00:30:07;100739.03;;;-9.27;83.14
57038;BME280;59942;49.304;8.256;2022-12-17T00:32:52;100940.00;;;-8.11;82.07
57038;BME280;59942;49.304;8.256;2022-12-17T00:35:38;100950.31;;;-8.05;82.27
57038;BME280;59942;49.304;8.256;2022-12-17T00:38:24;100736.94;;;-9.55;81.14
57038;BME280;59942;49.304;8.256;2022-12-17T00:41:09;100806.31;;;-9.19;80.35
57038;BME280;59942;49.304;8.256;2022-12-17T00:43:55;100929.13;;;-8.29;82.45
57038;BME280;59942;49.304;8.256;2022-12-17T00:46:40;100650.16;;;-10.07;81.76
57038;BME280;59942;49.304;8.256;2022-12-17T00:49:26;100793.56;;;-9.04;82.50
57038;BME280;59942;49.304;8.256;2022-12-17T00:52:11;100914.38;;;-8.41;81.90
57038;BME280;59942;49.304;8.256;2022-12-17T00:54:56;100646.41;;;-9.97;83.02
57038;BME280;59942;49.304;8.256;2022-12-17T00:57:42;100720.34;;;-9.71;82.82
57038;BME280;59942;49.304;8.256;2022-12-17T01:00:27;100662.69;;;-10.07;81.56
57038;BME280;59942;49.304;8.256;2022-12-17T01:03:13;100651.41;;;-10.17;82.40
57038;BME280;59942;49.304;8.256;2022-12-17T01:06:02;100765.72;;;-9.66;79.25
57038;BME280;59942;49.304;8.256;2022-12-17T01:08:53;100728.97;;;-9.84;79.89
57038;BME280;59942;49.304;8.256;2022-12-17T01:11:39;100982.97;;;-8.45;81.52
57038;BME280;59942;49.304;8.256;2022-12-17T01:14:25;100968.72;;;-8.46;82.15
57038;BME280;59942;49.304;8.256;2022-12-17T01:17:10;100847.34;;;-9.19;82.16
57038;BME280;59942;49.304;8.256;2022-12-17T01:19:56;100815.72;;;-9.53;82.75
57038;BME280;59942;49.304;8.256;2022-12-17T01:22:44;100771.78;;;-9.99;79.57
57038;BME280;59942;49.304;8.256;2022-12-17T01:25:30;100650.50;;;-10.73;78.34
57038;BME280;59942;49.304;8.256;2022-12-17T01:28:24;100830.41;;;-9.61;78.80
57038;BME280;59942;49.304;8.256;2022-12-17T01:31:10;100655.94;;;-10.63;79.09
57038;BME280;59942;49.304;8.256;2022-12-17T01:34:00;100699.06;;;-10.53;78.02
57038;BME280;59942;49.304;8.256;2022-12-17T01:36:49;100725.81;;;-10.35;80.37
57038;BME280;59942;49.304;8.256;2022-12-17T01:39:34;101000.34;;;-8.69;80.68
57038;BME280;59942;49.304;8.256;2022-12-17T01:42:20;100720.91;;;-10.50;82.09
57038;BME280;59942;49.304;8.256;2022-12-17T01:45:10;100963.63;;;-9.03;79.97
57038;BME280;59942;49.304;8.256;2022-12-17T01:48:11;100738.84;;;-10.59;78.20
57038;BME280;59942;49.304;8.256;2022-12-17T01:51:18;101010.34;;;-9.07;77.64
57038;BME280;59942;49.304;8.256;2022-12-17T01:54:04;100855.66;;;-9.93;78.69
57038;BME280;59942;49.304;8.256;2022-12-17T01:56:50;100783.81;;;-10.45;78.25
57038;BME280;59942;49.304;8.256;2022-12-17T01:59:59;101019.81;;;-9.01;80.42
57038;BME280;59942;49.304;8.256;2022-12-17T02:02:48;100892.78;;;-9.68;82.02
57038;BME280;59942;49.304;8.256;2022-12-17T02:06:23;100848.06;;;-10.12;79.82
57038;BME280;59942;49.304;8.256;2022-12-17T02:12:52;100790.81;;;-10.73;78.37
57038;BME280;59942;49.304;8.256;2022-12-17T02:15:50;100868.25;;;-10.26;80.20
57038;BME280;59942;49.304;8.256;2022-12-17T02:18:44;100855.88;;;-10.23;82.32
57038;BME280;59942;49.304;8.256;2022-12-17T02:21:54;100844.59;;;-10.32;80.53
57038;BME280;59942;49.304;8.256;2022-12-17T02:24:57;101036.84;;;-9.14;82.87
57038;BME280;59942;49.304;8.256;2022-12-17T02:27:52;100752.34;;;-10.73;83.51
57038;BME280;59942;49.304;8.256;2022-12-17T02:30:38;100889.53;;;-10.18;79.65
57038;BME280;59942;49.304;8.256;2022-12-17T02:33:24;100841.28;;;-10.49;79.85
57038;BME280;59942;49.304;8.256;2022-12-17T02:36:10;101032.31;;;-9.55;78.61
57038;BME280;59942;49.304;8.256;2022-12-17T02:38:55;100887.56;;;-10.42;78.28
57038;BME280;59942;49.304;8.256;2022-12-17T02:41:47;100791.44;;;-10.93;80.36
57038;BME280;59942;49.304;8.256;2022-12-17T02:44:34;100878.78;;;-10.50;80.36
57038;BME280;59942;49.304;8.256;2022-12-17T02:47:22;100825.19;;;-11.03;77.62
57038;BME280;59942;49.304;8.256;2022-12-17T02:50:09;100945.28;;;-10.24;79.01
57038;BME280;59942;49.304;8.256;2022-12-17T02:52:58;101057.78;;;-9.48;78.46
57038;BME280;59942;49.304;8.256;2022-12-17T02:55:44;100871.78;;;-10.90;77.76
57038;BME280;59942;49.304;8.256;2022-12-17T02:58:30;100926.34;;;-10.52;78.93
57038;BME280;59942;49.304;8.256;2022-12-17T03:01:15;100956.53;;;-10.34;82.61
57038;BME280;59942;49.304;8.256;2022-12-17T03:04:01;100777.72;;;-11.33;82.15
57038;BME280;59942;49.304;8.256;2022-12-17T03:06:46;100944.81;;;-10.33;81.00
57038;BME280;59942;49.304;8.256;2022-12-17T03:09:32;100882.56;;;-10.42;83.05
57038;BME280;59942;49.304;8.256;2022-12-17T03:12:18;100935.00;;;-10.12;84.12
57038;BME280;59942;49.304;8.256;2022-12-17T03:15:03;100776.81;;;-11.19;83.14
57038;BME280;59942;49.304;8.256;2022-12-17T03:17:49;100869.34;;;-10.72;83.06
57038;BME280;59942;49.304;8.256;2022-12-17T03:20:34;101084.88;;;-9.58;81.36
57038;BME280;59942;49.304;8.256;2022-12-17T03:23:19;100955.03;;;-10.46;80.71
57038;BME280;59942;49.304;8.256;2022-12-17T03:26:05;100882.25;;;-10.97;82.71
57038;BME280;59942;49.304;8.256;2022-12-17T03:28:51;100807.63;;;-11.36;80.58
57038;BME280;59942;49.304;8.256;2022-12-17T03:31:36;100874.31;;;-11.05;83.54
57038;BME280;59942;49.304;8.256;2022-12-17T03:34:22;100872.78;;;-10.87;83.71
57038;BME280;59942;49.304;8.256;2022-12-17T03:37:07;100909.13;;;-10.62;83.83
57038;BME280;59942;49.304;8.256;2022-12-17T03:39:53;100773.28;;;-11.39;83.55
57038;BME280;59942;49.304;8.256;2022-12-17T03:42:38;100778.00;;;-11.60;79.94
57038;BME280;59942;49.304;8.256;2022-12-17T03:45:24;100888.72;;;-11.01;80.09
57038;BME280;59942;49.304;8.256;2022-12-17T03:48:12;101070.75;;;-10.06;78.71
57038;BME280;59942;49.304;8.256;2022-12-17T03:50:58;100787.69;;;-11.66;78.70
57038;BME280;59942;49.304;8.256;2022-12-17T03:53:44;100915.50;;;-11.00;77.39
57038;BME280;59942;49.304;8.256;2022-12-17T03:56:30;101121.69;;;-10.07;76.33
57038;BME280;59942;49.304;8.256;2022-12-17T03:59:15;100995.34;;;-10.58;78.86
57038;BME280;59942;49.304;8.256;2022-12-17T04:02:01;100849.94;;;-11.56;80.15
57038;BME280;59942;49.304;8.256;2022-12-17T04:04:47;100784.56;;;-11.93;80.17
57038;BME280;59942;49.304;8.256;2022-12-17T04:07:32;100849.94;;;-11.56;79.10
57038;BME280;59942;49.304;8.256;2022-12-17T04:10:18;100829.72;;;-11.75;77.49
57038;BME280;59942;49.304;8.256;2022-12-17T04:20:25;100868.28;;;-11.87;77.92
57038;BME280;59942;49.304;8.256;2022-12-17T04:23:11;100811.50;;;-12.19;77.21
57038;BME280;59942;49.304;8.256;2022-12-17T04:25:57;101030.50;;;-10.88;78.28
57038;BME280;59942;49.304;8.256;2022-12-17T04:28:42;100972.94;;;-11.18;78.85
57038;BME280;59942;49.304;8.256;2022-12-17T04:31:28;100985.53;;;-11.17;77.44
57038;BME280;59942;49.304;8.256;2022-12-17T04:34:13;100844.53;;;-12.25;76.41
57038;BME280;59942;49.304;8.256;2022-12-17T04:36:59;100977.81;;;-11.51;76.33
57038;BME280;59942;49.304;8.256;2022-12-17T04:39:44;101132.44;;;-10.72;77.41
57038;BME280;59942;49.304;8.256;2022-12-17T04:42:30;100932.63;;;-11.84;77.86
57038;BME280;59942;49.304;8.256;2022-12-17T04:45:16;101035.09;;;-11.11;81.99
57038;BME280;59942;49.304;8.256;2022-12-17T04:48:13;100904.22;;;-11.84;80.23
57038;BME280;59942;49.304;8.256;2022-12-17T04:50:59;100879.69;;;-12.07;80.63
57038;BME280;59942;49.304;8.256;2022-12-17T04:53:44;100995.47;;;-11.18;83.06
57038;BME280;59942;49.304;8.256;2022-12-17T04:56:30;100869.91;;;-11.72;82.67
57038;BME280;59942;49.304;8.256;2022-12-17T04:59:15;100872.41;;;-11.72;83.57
57038;BME280;59942;49.304;8.256;2022-12-17T05:02:01;101162.38;;;-10.13;84.30
57038;BME280;59942;49.304;8.256;2022-12-17T05:04:46;100846.38;;;-11.91;82.54
57038;BME280;59942;49.304;8.256;2022-12-17T05:07:32;100890.59;;;-11.75;82.72
57038;BME280;59942;49.304;8.256;2022-12-17T05:10:18;101050.88;;;-10.82;83.59
57038;BME280;59942;49.304;8.256;2022-12-17T05:13:03;100976.16;;;-11.21;82.95
57038;BME280;59942;49.304;8.256;2022-12-17T05:15:54;100939.41;;;-11.52;80.96
57038;BME280;59942;49.304;8.256;2022-12-17T05:18:40;100994.56;;;-11.50;79.06
57038;BME280;59942;49.304;8.256;2022-12-17T05:21:25;100987.81;;;-11.81;77.73
57038;BME280;59942;49.304;8.256;2022-12-17T05:24:11;100981.25;;;-12.09;77.24
57038;BME280;59942;49.304;8.256;2022-12-17T05:26:57;100903.03;;;-12.64;77.53
57038;BME280;59942;49.304;8.256;2022-12-17T05:29:42;101070.63;;;-11.76;77.45
57038;BME280;59942;49.304;8.256;2022-12-17T05:32:28;100845.66;;;-13.19;76.67
57038;BME280;59942;49.304;8.256;2022-12-17T05:35:14;100897.59;;;-12.72;77.52
57038;BME280;59942;49.304;8.256;2022-12-17T05:38:07;101197.16;;;-10.80;79.51
57038;BME280;59942;49.304;8.256;2022-12-17T05:40:57;101210.34;;;-10.68;80.73
57038;BME280;59942;49.304;8.256;2022-12-17T05:43:43;100932.44;;;-12.45;81.32
57038;BME280;59942;49.304;8.256;2022-12-17T05:46:29;101113.88;;;-11.64;79.34
57038;BME280;59942;49.304;8.256;2022-12-17T05:49:14;101162.81;;;-11.26;78.00
57038;BME280;59942;49.304;8.256;2022-12-17T05:52:00;101112.91;;;-11.38;80.50
57038;BME280;59942;49.304;8.256;2022-12-17T05:54:45;101082.81;;;-11.53;81.69
57038;BME280;59942;49.304;8.256;2022-12-17T05:57:31;101127.00;;;-11.25;81.47
57038;BME280;59942;49.304;8.256;2022-12-17T06:00:22;101005.84;;;-12.01;78.60
57038;BME280;59942;49.304;8.256;2022-12-17T06:03:08;101176.06;;;-10.84;79.45
57038;BME280;59942;49.304;8.256;2022-12-17T06:05:55;101207.41;;;-10.60;81.76
57038;BME280;59942;49.304;8.256;2022-12-17T06:08:41;101174.22;;;-11.01;79.45
57038;BME280;59942;49.304;8.256;2022-12-17T06:11:26;101228.97;;;-10.64;78.80
57038;BME280;59942;49.304;8.256;2022-12-17T06:14:12;101229.53;;;-10.53;80.22
57038;BME280;59942;49.304;8.256;2022-12-17T06:16:57;101184.88;;;-10.60;83.76
57038;BME280;59942;49.304;8.256;2022-12-17T06:19:42;101235.13;;;-10.27;82.96
57038;BME280;59942;49.304;8.256;2022-12-17T06:22:28;101214.59;;;-10.52;81.81
57038;BME280;59942;49.304;8.256;2022-12-17T06:25:13;101239.22;;;-10.44;82.21
57038;BME280;59942;49.304;8.256;2022-12-17T06:27:59;101246.31;;;-10.37;83.56
57038;BME280;59942;49.304;8.256;2022-12-17T06:30:50;101253.06;;;-10.51;83.58
57038;BME280;59942;49.304;8.256;2022-12-17T06:33:36;101262.34;;;-10.19;86.27
57038;BME280;59942;49.304;8.256;2022-12-17T06:36:22;101203.69;;;-10.37;86.26
57038;BME280;59942;49.304;8.256;2022-12-17T06:39:07;101113.66;;;-10.79;85.55
57038;BME280;59942;49.304;8.256;2022-12-17T06:41:53;101167.41;;;-10.59;83.75
57038;BME280;59942;49.304;8.256;2022-12-17T06:44:39;101268.59;;;-9.81;87.81
57038;BME280;59942;49.304;8.256;2022-12-17T06:47:24;101235.22;;;-9.80;88.42
57038;BME280;59942;49.304;8.256;2022-12-17T06:50:29;101122.69;;;-10.36;88.89
57038;BME280;59942;49.304;8.256;2022-12-17T06:53:14;101266.53;;;-9.73;86.54
57038;BME280;59942;49.304;8.256;2022-12-17T06:56:00;101158.66;;;-10.36;87.38
57038;BME280;59942;49.304;8.256;2022-12-17T06:58:46;101281.44;;;-9.76;84.90
57038;BME280;59942;49.304;8.256;2022-12-17T07:01:31;101284.78;;;-9.75;87.41
57038;BME280;59942;49.304;8.256;2022-12-17T07:04:17;101229.09;;;-9.85;91.36
57038;BME280;59942;49.304;8.256;2022-12-17T07:07:02;101295.78;;;-9.42;92.20
57038;BME280;59942;49.304;8.256;2022-12-17T07:09:48;101289.28;;;-9.38;94.54
57038;BME280;59942;49.304;8.256;2022-12-17T07:12:39;101264.78;;;-9.74;93.91
57038;BME280;59942;49.304;8.256;2022-12-17T07:15:24;101212.94;;;-10.36;92.97
57038;BME280;59942;49.304;8.256;2022-12-17T07:18:09;101126.03;;;-10.67;95.69
57038;BME280;59942;49.304;8.256;2022-12-17T07:20:55;101265.09;;;-9.84;95.38
57038;BME280;59942;49.304;8.256;2022-12-17T07:23:40;101299.34;;;-9.38;96.64
57038;BME280;59942;49.304;8.256;2022-12-17T07:26:26;101279.56;;;-9.32;97.07
57038;BME280;59942;49.304;8.256;2022-12-17T07:29:12;101204.94;;;-9.66;97.93
57038;BME280;59942;49.304;8.256;2022-12-17T07:31:57;101345.91;;;-9.12;96.16
57038;BME280;59942;49.304;8.256;2022-12-17T07:34:43;101172.91;;;-9.72;97.41
57038;BME280;59942;49.304;8.256;2022-12-17T07:37:29;101193.38;;;-9.64;98.79
57038;BME280;59942;49.304;8.256;2022-12-17T07:40:14;101144.03;;;-10.12;98.97
57038;BME280;59942;49.304;8.256;2022-12-17T07:43:00;101155.47;;;-10.48;96.08
57038;BME280;59942;49.304;8.256;2022-12-17T07:45:47;101317.00;;;-9.52;97.39
57038;BME280;59942;49.304;8.256;2022-12-17T07:48:34;101251.03;;;-9.81;96.82
57038;BME280;59942;49.304;8.256;2022-12-17T07:51:19;101164.84;;;-9.98;98.96
57038;BME280;59942;49.304;8.256;2022-12-17T07:54:05;101182.63;;;-10.09;97.51
57038;BME280;59942;49.304;8.256;2022-12-17T07:56:51;101327.88;;;-9.05;98.54
57038;BME280;59942;49.304;8.256;2022-12-17T07:59:36;101255.81;;;-9.54;98.79
57038;BME280;59942;49.304;8.256;2022-12-17T08:02:23;101281.44;;;-9.28;99.89
57038;BME280;59942;49.304;8.256;2022-12-17T08:05:09;101328.25;;;-9.14;99.46
57038;BME280;59942;49.304;8.256;2022-12-17T08:07:54;101380.75;;;-8.70;98.77
57038;BME280;59942;49.304;8.256;2022-12-17T08:10:40;101270.91;;;-9.37;99.83
57038;BME280;59942;49.304;8.256;2022-12-17T08:13:25;101394.81;;;-8.74;98.20
57038;BME280;59942;49.304;8.256;2022-12-17T08:16:11;101311.81;;;-9.07;99.87
57038;BME280;59942;49.304;8.256;2022-12-17T08:18:57;101220.31;;;-9.77;99.12
57038;BME280;59942;49.304;8.256;2022-12-17T08:21:43;101328.03;;;-8.85;99.68
57038;BME280;59942;49.304;8.256;2022-12-17T08:24:28;101417.31;;;-8.61;97.51
57038;BME280;59942;49.304;8.256;2022-12-17T08:27:14;101401.81;;;-8.68;98.14
57038;BME280;59942;49.304;8.256;2022-12-17T08:30:04;101354.09;;;-8.67;98.76
57038;BME280;59942;49.304;8.256;2022-12-17T08:32:50;101413.72;;;-8.31;98.78
57038;BME280;59942;49.304;8.256;2022-12-17T08:35:36;101311.63;;;-8.95;97.42
57038;BME280;59942;49.304;8.256;2022-12-17T08:38:21;101241.50;;;-9.40;96.36
57038;BME280;59942;49.304;8.256;2022-12-17T08:41:07;101423.38;;;-8.23;96.89
57038;BME280;59942;49.304;8.256;2022-12-17T08:43:52;101383.63;;;-8.30;97.26
57038;BME280;59942;49.304;8.256;2022-12-17T08:46:38;101318.59;;;-8.57;97.72
57038;BME280;59942;49.304;8.256;2022-12-17T08:49:31;101278.88;;;-8.80;97.43
57038;BME280;59942;49.304;8.256;2022-12-17T08:52:16;101447.63;;;-7.74;97.17
57038;BME280;59942;49.304;8.256;2022-12-17T08:55:02;101300.41;;;-8.51;97.64
57038;BME280;59942;49.304;8.256;2022-12-17T08:57:55;101291.94;;;-8.35;98.42
57038;BME280;59942;49.304;8.256;2022-12-17T09:00:42;101437.28;;;-7.44;97.43
57038;BME280;59942;49.304;8.256;2022-12-17T09:03:28;101401.44;;;-7.56;97.72
57038;BME280;59942;49.304;8.256;2022-12-17T09:06:14;101352.69;;;-8.11;97.09
57038;BME280;59942;49.304;8.256;2022-12-17T09:09:04;101349.66;;;-8.04;97.64
57038;BME280;59942;49.304;8.256;2022-12-17T09:11:50;101441.19;;;-7.51;97.32
57038;BME280;59942;49.304;8.256;2022-12-17T09:14:35;101444.13;;;-7.41;98.35
57038;BME280;59942;49.304;8.256;2022-12-17T09:17:21;101450.75;;;-7.43;96.29
57038;BME280;59942;49.304;8.256;2022-12-17T09:20:06;101293.03;;;-8.48;96.89
57038;BME280;59942;49.304;8.256;2022-12-17T09:22:55;101285.03;;;-8.39;96.42
57038;BME280;59942;49.304;8.256;2022-12-17T09:25:41;101271.47;;;-8.43;95.56
57038;BME280;59942;49.304;8.256;2022-12-17T09:28:27;101450.47;;;-7.31;96.19
57038;BME280;59942;49.304;8.256;2022-12-17T09:31:13;101331.69;;;-7.93;97.17
57038;BME280;59942;49.304;8.256;2022-12-17T09:34:03;101406.84;;;-7.66;97.85
57038;BME280;59942;49.304;8.256;2022-12-17T09:36:48;101440.09;;;-7.56;98.03
57038;BME280;59942;49.304;8.256;2022-12-17T09:39:34;101377.84;;;-7.76;98.16
57038;BME280;59942;49.304;8.256;2022-12-17T09:42:41;101467.91;;;-7.18;96.34
57038;BME280;59942;49.304;8.256;2022-12-17T09:49:00;101479.44;;;-7.05;95.56
57038;BME280;59942;49.304;8.256;2022-12-17T09:51:48;101333.44;;;-7.92;95.89
57038;BME280;59942;49.304;8.256;2022-12-17T09:54:41;101447.97;;;-7.31;96.58
57038;BME280;59942;49.304;8.256;2022-12-17T09:57:31;101430.97;;;-7.54;96.81
57038;BME280;59942;49.304;8.256;2022-12-17T10:00:25;101382.00;;;-7.77;96.50
57038;BME280;59942;49.304;8.256;2022-12-17T10:03:20;101349.84;;;-7.82;97.80
57038;BME280;59942;49.304;8.256;2022-12-17T10:06:10;101462.66;;;-7.23;97.25
57038;BME280;59942;49.304;8.256;2022-12-17T10:09:01;101376.50;;;-7.86;97.32
57038;BME280;59942;49.304;8.256;2022-12-17T10:11:47;101392.66;;;-7.64;97.20
57038;BME280;59942;49.304;8.256;2022-12-17T10:14:32;101479.38;;;-7.25;97.44
57038;BME280;59942;49.304;8.256;2022-12-17T10:17:20;101482.53;;;-7.11;98.64
57038;BME280;59942;49.304;8.256;2022-12-17T10:20:31;101426.06;;;-7.33;98.05
57038;BME280;59942;49.304;8.256;2022-12-17T10:23:28;101328.53;;;-7.89;97.25
57038;BME280;59942;49.304;8.256;2022-12-17T10:26:34;101365.03;;;-7.45;97.62
57038;BME280;59942;49.304;8.256;2022-12-17T10:29:22;101477.84;;;-6.85;97.27
57038;BME280;59942;49.304;8.256;2022-12-17T10:35:05;101336.75;;;-7.75;96.74
57038;BME280;59942;49.304;8.256;2022-12-17T10:37:51;101353.31;;;-7.62;96.17
57038;BME280;59942;49.304;8.256;2022-12-17T10:40:36;101371.59;;;-7.66;96.96
57038;BME280;59942;49.304;8.256;2022-12-17T10:43:36;101468.53;;;-6.86;97.19
57038;BME280;59942;49.304;8.256;2022-12-17T10:46:26;101496.34;;;-6.47;96.13
57038;BME280;59942;49.304;8.256;2022-12-17T10:49:20;101473.66;;;-7.21;96.29
57038;BME280;59942;49.304;8.256;2022-12-17T10:52:22;101488.59;;;-7.07;97.75
57038;BME280;59942;49.304;8.256;2022-12-17T10:55:19;101348.19;;;-7.82;97.80
57038;BME280;59942;49.304;8.256;2022-12-17T10:58:14;101374.53;;;-7.57;97.55
57038;BME280;59942;49.304;8.256;2022-12-17T11:01:01;101442.56;;;-7.03;98.15
57038;BME280;59942;49.304;8.256;2022-12-17T11:03:53;101497.31;;;-6.45;97.84
57038;BME280;59942;49.304;8.256;2022-12-17T11:09:46;101499.84;;;-6.25;97.03
57038;BME280;59942;49.304;8.256;2022-12-17T11:15:48;101325.91;;;-7.19;96.27
57038;BME280;59942;49.304;8.256;2022-12-17T11:18:51;101465.63;;;-6.19;96.52
57038;BME280;59942;49.304;8.256;2022-12-17T11:21:46;101460.53;;;-6.01;96.57
57038;BME280;59942;49.304;8.256;2022-12-17T11:24:45;101482.53;;;-6.18;96.15
57038;BME280;59942;49.304;8.256;2022-12-17T11:27:40;101502.59;;;-6.21;96.38
57038;BME280;59942;49.304;8.256;2022-12-17T11:30:28;101378.84;;;-6.81;96.98
57038;BME280;59942;49.304;8.256;2022-12-17T11:33:21;101381.53;;;-6.96;96.75
57038;BME280;59942;49.304;8.256;2022-12-17T11:36:45;101416.44;;;-7.23;96.73
57038;BME280;59942;49.304;8.256;2022-12-17T11:39:34;101412.97;;;-7.07;97.72
57038;BME280;59942;49.304;8.256;2022-12-17T11:42:27;101508.75;;;-6.14;97.18
57038;BME280;59942;49.304;8.256;2022-12-17T11:48:11;101380.72;;;-6.95;97.56
57038;BME280;59942;49.304;8.256;2022-12-17T11:51:10;101428.97;;;-6.50;97.60
57038;BME280;59942;49.304;8.256;2022-12-17T11:57:19;101516.25;;;-5.96;95.76
57038;BME280;59942;49.304;8.256;2022-12-17T12:00:15;101392.53;;;-6.37;97.45
57038;BME280;59942;49.304;8.256;2022-12-17T12:06:02;101503.50;;;-5.59;97.21
57038;BME280;59942;49.304;8.256;2022-12-17T12:15:36;101503.78;;;-4.88;96.72
57038;BME280;59942;49.304;8.256;2022-12-17T12:21:39;101507.00;;;-5.55;94.67
57038;BME280;59942;49.304;8.256;2022-12-17T12:32:02;101415.63;;;-6.67;94.29
57038;BME280;59942;49.304;8.256;2022-12-17T12:34:51;101465.59;;;-5.59;95.62
57038;BME280;59942;49.304;8.256;2022-12-17T12:37:39;101333.28;;;-6.45;96.03
57038;BME280;59942;49.304;8.256;2022-12-17T12:40:38;101464.03;;;-5.55;95.75
57038;BME280;59942;49.304;8.256;2022-12-17T12:43:31;101478.00;;;-5.00;96.82
57038;BME280;59942;49.304;8.256;2022-12-17T12:46:35;101504.69;;;-5.08;94.87
57038;BME280;59942;49.304;8.256;2022-12-17T12:49:44;101493.34;;;-4.97;95.39
57038;BME280;59942;49.304;8.256;2022-12-17T12:52:36;101408.59;;;-5.73;94.48
57038;BME280;59942;49.304;8.256;2022-12-17T12:55:21;101408.84;;;-6.09;95.14
57038;BME280;59942;49.304;8.256;2022-12-17T12:58:28;101435.13;;;-5.41;95.66
57038;BME280;59942;49.304;8.256;2022-12-17T13:01:15;101483.94;;;-4.99;95.85
57038;BME280;59942;49.304;8.256;2022-12-17T13:04:21;101279.00;;;-6.76;94.50
57038;BME280;59942;49.304;8.256;2022-12-17T13:07:20;101402.78;;;-5.49;94.74
57038;BME280;59942;49.304;8.256;2022-12-17T13:09:51;101429.78;;;-5.27;94.67
57038;BME280;59942;49.304;8.256;2022-12-17T13:12:27;101500.69;;;-4.80;94.92
57038;BME280;59942;49.304;8.256;2022-12-17T13:15:07;101443.06;;;-5.73;94.21
57038;BME280;59942;49.304;8.256;2022-12-17T13:17:56;101484.75;;;-6.24;93.45
57038;BME280;59942;49.304;8.256;2022-12-17T13:20:31;101301.94;;;-7.28;94.08
57038;BME280;59942;49.304;8.256;2022-12-17T13:23:13;101486.47;;;-5.63;96.25
57038;BME280;59942;49.304;8.256;2022-12-17T13:25:41;101354.06;;;-6.90;94.85
57038;BME280;59942;49.304;8.256;2022-12-17T13:28:28;101434.69;;;-6.34;94.99
57038;BME280;59942;49.304;8.256;2022-12-17T13:31:01;101438.09;;;-5.72;96.86
57038;BME280;59942;49.304;8.256;2022-12-17T13:33:36;101495.84;;;-5.39;96.04
57038;BME280;59942;49.304;8.256;2022-12-17T13:36:22;101271.44;;;-6.56;95.55
57038;BME280;59942;49.304;8.256;2022-12-17T13:39:02;101485.03;;;-4.93;96.48
57038;BME280;59942;49.304;8.256;2022-12-17T13:41:34;101427.88;;;-5.10;96.00
57038;BME280;59942;49.304;8.256;2022-12-17T13:44:15;101317.25;;;-5.82;95.07
57038;BME280;59942;49.304;8.256;2022-12-17T13:46:45;101407.47;;;-5.59;94.15
57038;BME280;59942;49.304;8.256;2022-12-17T13:49:24;101491.41;;;-5.02;93.86
57038;BME280;59942;49.304;8.256;2022-12-17T13:52:05;101440.38;;;-5.57;92.85
57038;BME280;59942;49.304;8.256;2022-12-17T13:54:37;101463.81;;;-5.61;93.00
57038;BME280;59942;49.304;8.256;2022-12-17T13:57:16;101496.53;;;-5.43;94.21
57038;BME280;59942;49.304;8.256;2022-12-17T13:59:51;101385.22;;;-6.31;93.83
57038;BME280;59942;49.304;8.256;2022-12-17T14:02:29;101511.03;;;-5.80;93.22
57038;BME280;59942;49.304;8.256;2022-12-17T14:05:00;101516.91;;;-6.20;93.18
57038;BME280;59942;49.304;8.256;2022-12-17T14:07:50;101394.91;;;-7.35;94.90
57038;BME280;59942;49.304;8.256;2022-12-17T14:10:18;101370.19;;;-6.86;96.69
57038;BME280;59942;49.304;8.256;2022-12-17T14:12:46;101506.88;;;-6.18;96.91
57038;BME280;59942;49.304;8.256;2022-12-17T14:15:24;101517.38;;;-6.29;96.04
57038;BME280;59942;49.304;8.256;2022-12-17T14:17:54;101523.75;;;-6.17;96.67
57038;BME280;59942;49.304;8.256;2022-12-17T14:20:27;101513.41;;;-6.04;95.91
57038;BME280;59942;49.304;8.256;2022-12-17T14:22:59;101411.09;;;-6.74;95.97
57038;BME280;59942;49.304;8.256;2022-12-17T14:25:34;101404.03;;;-7.19;94.85
57038;BME280;59942;49.304;8.256;2022-12-17T14:28:20;101434.94;;;-6.48;96.10
57038;BME280;59942;49.304;8.256;2022-12-17T14:30:48;101478.06;;;-6.99;95.39
57038;BME280;59942;49.304;8.256;2022-12-17T14:33:36;101377.19;;;-7.54;97.15
57038;BME280;59942;49.304;8.256;2022-12-17T14:36:08;101459.97;;;-7.44;96.71
57038;BME280;59942;49.304;8.256;2022-12-17T14:38:54;101442.69;;;-7.00;97.87
57038;BME280;59942;49.304;8.256;2022-12-17T14:41:23;101455.50;;;-6.95;96.93
57038;BME280;59942;49.304;8.256;2022-12-17T14:44:18;101525.97;;;-6.05;97.96
57038;BME280;59942;49.304;8.256;2022-12-17T14:46:47;101523.03;;;-6.90;95.93
57038;BME280;59942;49.304;8.256;2022-12-17T14:49:17;101496.13;;;-6.89;97.22
57038;BME280;59942;49.304;8.256;2022-12-17T14:51:46;101386.41;;;-7.37;97.64
57038;BME280;59942;49.304;8.256;2022-12-17T14:56:41;101527.41;;;-6.30;97.80
57038;BME280;59942;49.304;8.256;2022-12-17T14:59:33;101514.91;;;-6.27;97.04
57038;BME280;59942;49.304;8.256;2022-12-17T15:02:22;101500.09;;;-6.58;97.31
57038;BME280;59942;49.304;8.256;2022-12-17T15:04:51;101401.22;;;-7.43;97.46
57038;BME280;59942;49.304;8.256;2022-12-17T15:07:24;101428.81;;;-7.46;97.32
57038;BME280;59942;49.304;8.256;2022-12-17T15:09:52;101499.16;;;-6.96;97.33
57038;BME280;59942;49.304;8.256;2022-12-17T15:12:21;101527.47;;;-6.66;97.18
57038;BME280;59942;49.304;8.256;2022-12-17T15:14:49;101538.78;;;-6.76;97.09
57038;BME280;59942;49.304;8.256;2022-12-17T15:17:16;101467.13;;;-7.17;97.37
57038;BME280;59942;49.304;8.256;2022-12-17T15:19:44;101495.75;;;-6.79;97.58